createdAt,value
2023-03-06T00:00:57.395Z,25.60
2023-03-06T00:03:27.825Z,28.60
2023-03-06T00:05:57.404Z,29.30
2023-03-06T00:08:27.445Z,25.33
2023-03-06T00:10:56.256Z,25.40
2023-03-06T00:13:23.834Z,34.65
2023-03-06T00:15:50.964Z,31.65
2023-03-06T00:18:18.393Z,27.10
2023-03-06T00:20:45.590Z,28.45
2023-03-06T00:23:12.847Z,26.73
2023-03-06T00:25:44.573Z,29.67
2023-03-06T00:28:14.757Z,25.75
2023-03-06T00:30:42.853Z,28.45
2023-03-06T00:33:10.592Z,28.15
2023-03-06T00:35:40.076Z,28.08
2023-03-06T00:38:08.334Z,24.27
2023-03-06T00:40:35.402Z,27.10
2023-03-06T00:43:02.454Z,25.58
2023-03-06T00:45:29.816Z,31.13
2023-03-06T00:47:56.943Z,31.10
2023-03-06T00:50:24.781Z,25.38
2023-03-06T00:52:52.650Z,23.45
2023-03-06T00:55:19.780Z,29.02
2023-03-06T00:57:46.912Z,24.83
2023-03-06T01:00:15.188Z,29.02
2023-03-06T01:02:42.315Z,28.85
2023-03-06T01:05:10.285Z,29.38
2023-03-06T01:07:37.989Z,25.98
2023-03-06T01:10:08.028Z,28.85
2023-03-06T01:12:35.348Z,28.55
2023-03-06T01:15:02.534Z,28.30
2023-03-06T01:17:29.703Z,31.55
2023-03-06T01:19:58.158Z,24.52
2023-03-06T01:22:25.249Z,29.92
2023-03-06T01:24:53.249Z,29.65
2023-03-06T01:27:21.898Z,26.63
2023-03-06T01:29:49.014Z,27.10
2023-03-06T01:32:16.150Z,27.55
2023-03-06T01:34:43.261Z,25.70
2023-03-06T01:37:10.438Z,30.85
2023-03-06T01:39:37.523Z,33.20
2023-03-06T01:42:05.506Z,23.70
2023-03-06T01:44:32.668Z,29.55
2023-03-06T01:47:02.330Z,26.27
2023-03-06T01:49:37.074Z,24.73
2023-03-06T01:52:22.192Z,29.25
2023-03-06T01:55:03.600Z,28.27
2023-03-06T01:57:36.685Z,28.25
2023-03-06T02:00:27.286Z,26.73
2023-03-06T02:03:05.605Z,32.38
2023-03-06T02:05:33.729Z,28.60
2023-03-06T02:08:02.789Z,25.33
2023-03-06T02:10:30.299Z,31.00
2023-03-06T02:12:57.559Z,26.65
2023-03-06T02:15:29.028Z,35.25
2023-03-06T02:17:56.538Z,29.52
2023-03-06T02:20:37.886Z,27.33
2023-03-06T02:23:32.486Z,27.45
2023-03-06T02:26:01.380Z,27.05
2023-03-06T02:28:28.618Z,29.30
2023-03-06T02:30:57.194Z,31.08
2023-03-06T02:33:28.486Z,30.60
2023-03-06T02:36:02.197Z,31.52
2023-03-06T02:38:37.022Z,26.90
2023-03-06T02:41:09.210Z,26.27
2023-03-06T02:43:39.702Z,24.42
2023-03-06T02:46:07.769Z,31.05
2023-03-06T02:48:35.064Z,29.90
2023-03-06T02:51:02.165Z,21.73
2023-03-06T02:53:29.558Z,31.60
2023-03-06T02:55:59.415Z,32.80
2023-03-06T02:58:26.612Z,28.40
2023-03-06T03:00:53.750Z,27.75
2023-03-06T03:03:21.608Z,35.17
2023-03-06T03:05:48.731Z,31.42
2023-03-06T03:08:23.045Z,31.25
2023-03-06T03:10:56.675Z,31.67
2023-03-06T03:13:25.335Z,30.67
2023-03-06T03:16:14.077Z,34.47
2023-03-06T03:18:44.464Z,29.63
2023-03-06T03:21:14.435Z,32.92
2023-03-06T03:23:41.553Z,32.55
2023-03-06T03:26:16.402Z,31.00
2023-03-06T03:28:48.877Z,30.20
2023-03-06T03:31:18.889Z,35.17
2023-03-06T03:33:46.138Z,30.05
2023-03-06T03:36:13.713Z,29.42
2023-03-06T03:38:45.089Z,31.38
2023-03-06T03:41:12.444Z,30.23
2023-03-06T03:43:39.575Z,33.17
2023-03-06T03:46:06.677Z,28.30
2023-03-06T03:48:34.741Z,27.08
2023-03-06T03:51:13.964Z,31.95
2023-03-06T03:53:45.736Z,33.72
2023-03-06T03:56:15.411Z,30.17
2023-03-06T03:58:51.505Z,34.45
2023-03-06T04:01:18.855Z,31.65
2023-03-06T04:03:46.230Z,27.10
2023-03-06T04:06:15.324Z,31.45
2023-03-06T04:08:42.877Z,27.80
2023-03-06T04:11:12.015Z,27.58
2023-03-06T04:13:39.941Z,29.90
2023-03-06T04:16:07.654Z,27.38
2023-03-06T04:18:37.068Z,25.27
2023-03-06T04:21:06.368Z,23.92
2023-03-06T04:23:34.281Z,26.75
2023-03-06T04:26:01.713Z,26.75
2023-03-06T04:28:29.105Z,27.15
2023-03-06T04:30:57.391Z,25.20
2023-03-06T04:33:24.886Z,24.77
2023-03-06T04:35:52.128Z,22.90
2023-03-06T04:38:24.768Z,30.42
2023-03-06T04:40:51.901Z,29.80
2023-03-06T04:43:19.270Z,26.65
2023-03-06T04:45:46.395Z,25.70
2023-03-06T04:48:17.310Z,25.38
2023-03-06T04:50:44.792Z,27.10
2023-03-06T04:53:12.131Z,27.33
2023-03-06T04:55:39.252Z,26.98
2023-03-06T04:58:06.351Z,36.17
2023-03-06T05:00:33.551Z,24.67
2023-03-06T05:03:01.909Z,23.02
2023-03-06T05:05:29.326Z,26.45
2023-03-06T05:07:57.201Z,28.40
2023-03-06T05:10:24.540Z,28.73
2023-03-06T05:12:51.900Z,27.85
2023-03-06T05:15:19.066Z,22.20
2023-03-06T05:17:47.528Z,24.08
2023-03-06T05:20:15.329Z,28.75
2023-03-06T05:22:42.881Z,19.85
2023-03-06T05:25:10.826Z,24.40
2023-03-06T05:27:38.930Z,23.95
2023-03-06T05:30:07.833Z,28.38
2023-03-06T05:32:35.906Z,28.63
2023-03-06T05:35:04.368Z,24.50
2023-03-06T05:37:31.964Z,27.73
2023-03-06T05:39:59.626Z,27.13
2023-03-06T05:42:28.673Z,29.58
2023-03-06T05:44:55.851Z,26.27
2023-03-06T05:47:23.043Z,27.58
2023-03-06T05:49:50.401Z,26.02
2023-03-06T05:52:17.870Z,27.63
2023-03-06T05:54:50.093Z,30.75
2023-03-06T05:57:19.657Z,23.77
2023-03-06T05:59:47.159Z,30.50
2023-03-06T06:02:14.304Z,27.90
2023-03-06T06:04:41.477Z,23.33
2023-03-06T06:07:08.726Z,29.52
2023-03-06T06:09:35.809Z,26.10
2023-03-06T06:12:03.976Z,27.52
2023-03-06T06:14:34.401Z,30.00
2023-03-06T06:17:01.593Z,32.03
2023-03-06T06:19:30.197Z,25.02
2023-03-06T06:21:57.464Z,28.30
2023-03-06T06:24:26.592Z,32.80
2023-03-06T06:26:56.430Z,29.27
2023-03-06T06:29:24.325Z,26.48
2023-03-06T06:31:52.464Z,24.55
2023-03-06T06:34:21.584Z,27.35
2023-03-06T06:36:53.413Z,28.00
2023-03-06T06:39:23.475Z,31.70
2023-03-06T06:42:05.612Z,27.25
2023-03-06T06:44:38.861Z,32.00
2023-03-06T06:47:22.255Z,31.23
2023-03-06T06:49:55.096Z,24.67
2023-03-06T06:52:24.310Z,27.02
2023-03-06T06:54:54.025Z,31.30
2023-03-06T06:57:22.058Z,30.05
2023-03-06T06:59:51.260Z,26.60
2023-03-06T07:02:19.679Z,25.75
2023-03-06T07:05:02.478Z,27.77
2023-03-06T07:07:30.903Z,26.52
2023-03-06T07:09:58.023Z,27.55
2023-03-06T07:12:25.235Z,29.45
2023-03-06T07:14:52.847Z,28.80
2023-03-06T07:17:19.962Z,27.58
2023-03-06T07:19:48.195Z,27.00
2023-03-06T07:22:15.475Z,37.10
2023-03-06T07:24:42.604Z,31.10
2023-03-06T07:27:09.768Z,29.00
2023-03-06T07:29:36.885Z,31.40
2023-03-06T07:32:04.096Z,31.05
2023-03-06T07:34:31.216Z,30.58
2023-03-06T07:36:58.346Z,30.02
2023-03-06T07:39:25.596Z,36.20
2023-03-06T07:41:53.497Z,29.08
2023-03-06T07:44:20.678Z,28.08
2023-03-06T07:46:47.877Z,27.20
2023-03-06T07:49:15.089Z,34.28
2023-03-06T07:51:42.144Z,31.02
2023-03-06T07:54:09.419Z,35.30
2023-03-06T07:56:36.801Z,31.67
2023-03-06T07:59:03.968Z,31.83
2023-03-06T08:01:31.200Z,28.88
2023-03-06T08:03:58.790Z,30.23
2023-03-06T08:06:27.608Z,29.85
2023-03-06T08:08:55.830Z,33.10
2023-03-06T08:11:26.134Z,27.38
2023-03-06T08:13:54.469Z,30.73
2023-03-06T08:16:28.951Z,26.65
2023-03-06T08:18:57.706Z,27.40
2023-03-06T08:21:27.715Z,31.52
2023-03-06T08:23:55.341Z,34.75
2023-03-06T08:26:30.144Z,32.47
2023-03-06T08:29:00.106Z,29.47
2023-03-06T08:31:38.045Z,36.83
2023-03-06T08:34:17.714Z,28.23
2023-03-06T08:36:45.033Z,29.50
2023-03-06T08:39:13.138Z,28.77
2023-03-06T08:41:42.074Z,32.73
2023-03-06T08:44:11.938Z,31.98
2023-03-06T08:46:39.449Z,27.90
2023-03-06T08:49:06.857Z,32.45
2023-03-06T08:51:34.013Z,34.55
2023-03-06T08:54:01.225Z,29.77
2023-03-06T08:56:34.112Z,32.00
2023-03-06T08:59:04.177Z,29.83
2023-03-06T09:01:35.178Z,28.08
2023-03-06T09:04:09.052Z,27.67
2023-03-06T09:06:41.520Z,28.50
2023-03-06T09:09:09.486Z,31.67
2023-03-06T09:11:37.278Z,31.67
2023-03-06T09:14:05.561Z,30.48
2023-03-06T09:16:33.274Z,26.48
2023-03-06T09:19:00.478Z,29.40
2023-03-06T09:21:28.634Z,31.63
2023-03-06T09:23:56.527Z,27.23
2023-03-06T09:26:44.985Z,29.33
2023-03-06T09:29:13.158Z,31.90
2023-03-06T09:31:40.341Z,27.47
2023-03-06T09:34:07.505Z,31.27
2023-03-06T09:36:49.200Z,32.95
2023-03-06T09:39:21.637Z,27.75
2023-03-06T09:41:50.385Z,24.83
2023-03-06T09:44:23.990Z,29.47
2023-03-06T09:47:18.349Z,25.95
2023-03-06T09:50:10.330Z,35.08
2023-03-06T09:52:46.775Z,29.35
2023-03-06T09:55:21.387Z,27.70
2023-03-06T09:58:22.361Z,28.17
2023-03-06T10:01:07.282Z,30.55
2023-03-06T10:04:27.563Z,28.75
2023-03-06T10:07:10.423Z,27.20
2023-03-06T10:09:52.629Z,28.48
2023-03-06T10:12:25.208Z,28.20
2023-03-06T10:15:16.494Z,25.90
2023-03-06T10:17:44.450Z,27.88
2023-03-06T10:20:21.307Z,27.13
2023-03-06T10:23:13.330Z,26.92
2023-03-06T10:26:11.167Z,26.93
2023-03-06T10:29:13.446Z,19.45
2023-03-06T10:31:49.279Z,20.95
2023-03-06T10:34:24.035Z,24.20
2023-03-06T10:36:54.042Z,25.35
2023-03-06T10:39:22.929Z,23.20
2023-03-06T10:41:50.271Z,26.40
2023-03-06T10:44:20.297Z,25.60
2023-03-06T10:46:55.992Z,30.40
2023-03-06T10:49:57.216Z,19.98
2023-03-06T10:52:24.923Z,27.40
2023-03-06T10:54:52.640Z,24.73
2023-03-06T10:57:32.015Z,26.20
2023-03-06T11:00:24.594Z,23.48
2023-03-06T11:03:32.336Z,28.42
2023-03-06T11:06:29.629Z,27.00
2023-03-06T11:09:20.030Z,24.65
2023-03-06T11:11:47.272Z,26.73
2023-03-06T11:14:23.030Z,22.85
2023-03-06T11:16:53.372Z,24.25
2023-03-06T11:19:25.769Z,26.40
2023-03-06T11:22:18.382Z,23.40
2023-03-06T11:24:49.710Z,24.17
2023-03-06T11:27:34.476Z,22.88
2023-03-06T11:30:11.609Z,24.50
2023-03-06T11:32:50.395Z,24.33
2023-03-06T11:35:27.510Z,23.05
2023-03-06T11:38:20.373Z,23.80
2023-03-06T11:40:59.287Z,23.27
2023-03-06T11:43:53.332Z,21.08
2023-03-06T11:46:28.584Z,25.37
2023-03-06T11:49:24.627Z,27.40
2023-03-06T11:51:57.845Z,21.25
2023-03-06T11:54:25.365Z,26.88
2023-03-06T11:57:19.034Z,22.95
2023-03-06T12:00:04.243Z,25.27
2023-03-06T12:03:13.052Z,22.90
2023-03-06T12:06:04.203Z,21.48
2023-03-06T12:08:43.225Z,21.30
2023-03-06T12:11:40.947Z,23.35
2023-03-06T12:14:41.039Z,21.67
2023-03-06T12:17:56.554Z,24.05
2023-03-06T12:21:04.627Z,25.17
2023-03-06T12:24:20.153Z,20.92
2023-03-06T12:27:05.877Z,21.33
2023-03-06T12:29:55.279Z,22.10
2023-03-06T12:32:45.888Z,21.75
2023-03-06T12:35:51.386Z,26.40
2023-03-06T12:38:34.607Z,27.70
2023-03-06T12:41:45.622Z,26.10
2023-03-06T12:44:54.795Z,26.30
2023-03-06T12:47:30.826Z,25.15
2023-03-06T12:50:06.805Z,26.05
2023-03-06T12:52:34.927Z,21.10
2023-03-06T12:55:06.970Z,23.63
2023-03-06T12:57:34.120Z,26.73
2023-03-06T13:00:01.157Z,23.27
2023-03-06T13:03:02.512Z,25.95
2023-03-06T13:05:51.286Z,26.38
2023-03-06T13:09:07.608Z,27.13
2023-03-06T13:12:05.817Z,23.87
2023-03-06T13:14:34.222Z,23.63
2023-03-06T13:17:23.800Z,23.98
2023-03-06T13:20:13.900Z,34.78
2023-03-06T13:22:45.857Z,29.65
2023-03-06T13:25:20.888Z,27.63
2023-03-06T13:27:54.174Z,25.33
2023-03-06T13:30:23.483Z,26.42
2023-03-06T13:32:52.885Z,28.55
2023-03-06T13:35:32.276Z,25.13
2023-03-06T13:38:02.459Z,25.33
2023-03-06T13:40:36.134Z,24.42
2023-03-06T13:43:18.189Z,24.33
2023-03-06T13:45:47.471Z,27.98
2023-03-06T13:48:43.718Z,26.83
2023-03-06T13:51:24.411Z,25.87
2023-03-06T13:54:10.389Z,24.98
2023-03-06T13:57:17.391Z,28.88
2023-03-06T14:00:16.348Z,24.92
2023-03-06T14:02:52.779Z,20.75
2023-03-06T14:05:20.474Z,25.13
2023-03-06T14:08:10.818Z,22.88
2023-03-06T14:10:39.327Z,27.88
2023-03-06T14:13:23.960Z,22.92
2023-03-06T14:15:55.948Z,27.23
2023-03-06T14:18:33.997Z,22.53
2023-03-06T14:21:03.540Z,22.05
2023-03-06T14:23:42.569Z,28.70
2023-03-06T14:26:22.789Z,19.90
2023-03-06T14:28:52.889Z,19.30
2023-03-06T14:31:23.798Z,21.87
2023-03-06T14:34:05.576Z,19.92
2023-03-06T14:36:36.572Z,22.38
2023-03-06T14:39:12.848Z,16.10
2023-03-06T14:41:41.344Z,19.02
2023-03-06T14:44:21.767Z,22.10
2023-03-06T14:46:57.490Z,21.17
2023-03-06T14:49:26.367Z,25.33
2023-03-06T14:52:02.289Z,23.13
2023-03-06T14:54:37.008Z,25.92
2023-03-06T14:57:13.994Z,21.50
2023-03-06T15:00:00.009Z,24.52
2023-03-06T15:02:32.928Z,20.77
2023-03-06T15:05:17.026Z,24.55
2023-03-06T15:07:44.695Z,21.67
2023-03-06T15:10:24.041Z,23.40
2023-03-06T15:12:51.197Z,21.48
2023-03-06T15:15:18.466Z,24.25
2023-03-06T15:17:47.786Z,18.55
2023-03-06T15:20:44.743Z,21.30
2023-03-06T15:23:26.685Z,20.33
2023-03-06T15:25:59.621Z,15.90
2023-03-06T15:28:39.488Z,18.35
2023-03-06T15:31:42.107Z,13.77
2023-03-06T15:34:11.889Z,15.07
2023-03-06T15:36:45.691Z,14.37
2023-03-06T15:39:37.162Z,19.50
2023-03-06T15:42:21.826Z,17.63
2023-03-06T15:44:53.080Z,16.92
2023-03-06T15:47:24.475Z,16.83
2023-03-06T15:49:54.588Z,16.17
2023-03-06T15:52:23.102Z,17.13
2023-03-06T15:54:50.423Z,15.88
2023-03-06T15:57:31.706Z,13.77
2023-03-06T16:00:01.490Z,16.40
2023-03-06T16:02:38.555Z,16.87
2023-03-06T16:05:16.742Z,14.07
2023-03-06T16:07:44.223Z,15.77
2023-03-06T16:10:23.026Z,13.20
2023-03-06T16:13:08.469Z,17.98
2023-03-06T16:15:49.738Z,14.80
2023-03-06T16:18:19.174Z,14.20
2023-03-06T16:20:46.750Z,15.10
2023-03-06T16:23:15.368Z,13.40
2023-03-06T16:25:46.392Z,15.70
2023-03-06T16:28:16.518Z,13.73
2023-03-06T16:30:45.101Z,21.33
2023-03-06T16:33:13.176Z,15.15
2023-03-06T16:35:41.352Z,15.07
2023-03-06T16:38:10.044Z,13.52
2023-03-06T16:40:41.200Z,14.40
2023-03-06T16:43:10.698Z,17.65
2023-03-06T16:45:40.421Z,14.77
2023-03-06T16:48:08.081Z,15.25
2023-03-06T16:50:40.481Z,15.00
2023-03-06T16:53:08.538Z,18.47
2023-03-06T16:55:35.836Z,13.07
2023-03-06T16:58:03.076Z,14.02
2023-03-06T17:00:33.133Z,19.10
2023-03-06T17:03:01.871Z,16.08
2023-03-06T17:05:29.660Z,16.97
2023-03-06T17:07:56.809Z,16.58
2023-03-06T17:10:26.350Z,15.55
2023-03-06T17:12:54.408Z,13.95
2023-03-06T17:15:21.775Z,15.07
2023-03-06T17:17:49.393Z,14.33
2023-03-06T17:20:16.512Z,16.20
2023-03-06T17:22:43.694Z,17.58
2023-03-06T17:25:11.537Z,14.80
2023-03-06T17:27:38.703Z,16.42
2023-03-06T17:30:07.317Z,14.93
2023-03-06T17:32:34.805Z,13.88
2023-03-06T17:35:02.016Z,17.88
2023-03-06T17:37:29.159Z,16.38
2023-03-06T17:39:56.321Z,14.05
2023-03-06T17:42:23.490Z,15.50
2023-03-06T17:44:51.146Z,15.70
2023-03-06T17:47:18.293Z,13.43
2023-03-06T17:49:45.434Z,17.35
2023-03-06T17:52:12.528Z,17.17
2023-03-06T17:54:39.612Z,19.00
2023-03-06T17:57:06.702Z,16.50
2023-03-06T17:59:34.456Z,17.00
2023-03-06T18:02:02.126Z,14.05
2023-03-06T18:04:29.460Z,15.00
2023-03-06T18:06:58.288Z,15.00
2023-03-06T18:09:25.554Z,12.48
2023-03-06T18:11:52.721Z,16.48
2023-03-06T18:14:19.814Z,15.10
2023-03-06T18:16:47.272Z,16.08
2023-03-06T18:19:14.600Z,16.70
2023-03-06T18:21:41.797Z,14.05
2023-03-06T18:24:11.121Z,17.40
2023-03-06T18:26:42.184Z,18.73
2023-03-06T18:29:09.361Z,13.48
2023-03-06T18:31:42.161Z,14.32
2023-03-06T18:34:13.380Z,12.90
2023-03-06T18:36:43.507Z,15.63
2023-03-06T18:39:13.185Z,15.70
2023-03-06T18:41:41.388Z,14.25
2023-03-06T18:44:08.731Z,13.30
2023-03-06T18:46:38.084Z,16.17
2023-03-06T18:49:05.632Z,13.60
2023-03-06T18:51:32.982Z,12.35
2023-03-06T18:54:02.360Z,12.73
2023-03-06T18:56:29.773Z,13.48
2023-03-06T18:59:04.474Z,13.13
2023-03-06T19:01:32.674Z,16.33
2023-03-06T19:04:04.934Z,14.60
2023-03-06T19:06:32.558Z,13.05
2023-03-06T19:09:01.678Z,13.65
2023-03-06T19:11:29.193Z,13.93
2023-03-06T19:13:56.478Z,15.10
2023-03-06T19:16:27.340Z,17.30
2023-03-06T19:18:55.702Z,15.93
2023-03-06T19:21:26.239Z,16.45
2023-03-06T19:23:55.043Z,15.30
2023-03-06T19:26:22.492Z,12.77
2023-03-06T19:28:50.008Z,18.88
2023-03-06T19:31:25.128Z,15.45
2023-03-06T19:33:54.363Z,15.95
2023-03-06T19:36:27.643Z,11.63
2023-03-06T19:39:00.289Z,12.13
2023-03-06T19:41:28.587Z,17.38
2023-03-06T19:43:59.557Z,13.93
2023-03-06T19:46:28.062Z,13.00
2023-03-06T19:49:00.898Z,11.98
2023-03-06T19:51:28.535Z,13.40
2023-03-06T19:53:57.617Z,11.93
2023-03-06T19:56:28.825Z,13.30
2023-03-06T19:58:56.555Z,12.38
2023-03-06T20:01:25.883Z,14.35
2023-03-06T20:03:59.222Z,14.10
2023-03-06T20:06:31.470Z,13.80
2023-03-06T20:08:59.138Z,15.50
2023-03-06T20:11:30.227Z,13.43
2023-03-06T20:14:03.033Z,14.55
2023-03-06T20:16:31.289Z,14.25
2023-03-06T20:19:06.190Z,13.05
2023-03-06T20:21:42.758Z,13.43
2023-03-06T20:24:17.993Z,13.97
2023-03-06T20:26:47.309Z,10.48
2023-03-06T20:29:14.668Z,10.32
2023-03-06T20:31:41.847Z,12.98
2023-03-06T20:34:10.268Z,13.00
2023-03-06T20:36:40.485Z,10.13
2023-03-06T20:39:12.723Z,11.98
2023-03-06T20:41:40.281Z,13.07
2023-03-06T20:44:13.357Z,13.68
2023-03-06T20:46:40.960Z,10.15
2023-03-06T20:49:09.244Z,11.57
2023-03-06T20:51:39.232Z,9.30
2023-03-06T20:54:09.564Z,12.15
2023-03-06T20:56:39.744Z,12.13
2023-03-06T20:59:12.171Z,12.90
2023-03-06T21:01:42.698Z,12.48
2023-03-06T21:04:13.771Z,9.38
2023-03-06T21:06:46.587Z,10.10
2023-03-06T21:09:17.197Z,9.23
2023-03-06T21:11:45.123Z,13.82
2023-03-06T21:14:14.014Z,10.70
2023-03-06T21:16:41.770Z,13.02
2023-03-06T21:19:09.806Z,13.77
2023-03-06T21:21:36.972Z,12.43
2023-03-06T21:24:04.379Z,9.50
2023-03-06T21:26:35.487Z,10.87
2023-03-06T21:29:04.385Z,20.05
2023-03-06T21:31:33.474Z,17.77
2023-03-06T21:34:02.497Z,14.80
2023-03-06T21:36:31.472Z,14.20
2023-03-06T21:38:58.595Z,13.75
2023-03-06T21:41:28.774Z,10.77
2023-03-06T21:43:58.370Z,11.52
2023-03-06T21:46:26.919Z,15.50
2023-03-06T21:48:54.753Z,14.05
2023-03-06T21:51:23.755Z,12.80
2023-03-06T21:53:52.267Z,17.20
2023-03-06T21:56:22.476Z,13.07
2023-03-06T21:58:49.637Z,12.30
2023-03-06T22:01:21.806Z,12.23
2023-03-06T22:03:49.190Z,17.27
2023-03-06T22:06:20.401Z,17.17
2023-03-06T22:08:48.090Z,11.38
2023-03-06T22:11:20.870Z,17.20
2023-03-06T22:13:48.852Z,15.38
2023-03-06T22:16:17.259Z,16.03
2023-03-06T22:18:46.556Z,16.17
2023-03-06T22:21:16.871Z,11.07
2023-03-06T22:23:44.320Z,12.90
2023-03-06T22:26:14.346Z,14.45
2023-03-06T22:28:42.629Z,16.42
2023-03-06T22:31:21.405Z,11.02
2023-03-06T22:33:52.445Z,10.02
2023-03-06T22:36:21.394Z,11.45
2023-03-06T22:38:49.770Z,10.35
2023-03-06T22:41:18.337Z,15.77
2023-03-06T22:43:45.426Z,13.25
2023-03-06T22:46:16.575Z,15.23
2023-03-06T22:48:44.297Z,11.00
2023-03-06T22:51:15.158Z,13.38
2023-03-06T22:53:43.292Z,16.33
2023-03-06T22:56:14.788Z,15.98
2023-03-06T22:58:44.644Z,11.27
2023-03-06T23:01:18.431Z,12.70
2023-03-06T23:03:52.724Z,14.52
2023-03-06T23:06:24.420Z,9.87
2023-03-06T23:08:55.852Z,9.15
2023-03-06T23:11:24.762Z,13.60
2023-03-06T23:14:14.884Z,13.95
2023-03-06T23:17:00.590Z,11.02
2023-03-06T23:19:49.214Z,9.67
2023-03-06T23:22:34.975Z,9.93
2023-03-06T23:25:20.283Z,11.95
2023-03-06T23:27:47.537Z,12.70
2023-03-06T23:30:15.892Z,9.30
2023-03-06T23:32:45.747Z,12.52
2023-03-06T23:35:13.793Z,9.25
2023-03-06T23:37:40.877Z,12.10
2023-03-06T23:40:09.383Z,12.38
2023-03-06T23:42:36.647Z,11.52
2023-03-06T23:45:04.166Z,15.17
2023-03-06T23:47:33.237Z,12.55
2023-03-06T23:50:00.537Z,10.88
2023-03-06T23:52:27.625Z,10.98
2023-03-06T23:54:54.711Z,10.57
2023-03-06T23:57:21.777Z,11.00
2023-03-06T23:59:48.830Z,14.25
